Aeroporto :
LOGIN :

Iscrizione | Disclaimer

   EN    FR    IT 

 










Sommario :    VFR   VFR Marginale   IFR   IFR Intensivo   IFR Molto Intensivo
Visibilità : 
Base nubi : 
>= 8 km
>= 3000ft
5 / 8 km
1000 / 3000 ft
1500m / 5 km
500 / 1000 ft
800 / 1500m
200 / 500 ft
< 800m
< 200 ft
Simboli :   Temporali  Nebbia  Neve Forte  Precipitazioni Forti  Vento > 20 kt
SIGMETs :   Varie  Temporali  Ghiacco  Turbolenza  Onda orograficha  Ceneri Vulcaniche






- Altitudine del aeroporto : 172 ft
- Codice IATA : LPI


ESSL - Saab

ULTIMO METAR :
  • 171450Z AUTO 19006KT 150V230 9999 FEW016/// OVC026/// 07/06 Q1016

METARs OBSOLETI :
  • 171420Z AUTO 19007KT 140V220 9999 OVC017/// 07/06 Q1016
  • 171350Z AUTO 19008KT 150V220 9999 OVC016/// 07/06 Q1016
  • 171320Z AUTO 19009KT 9999 OVC016/// 07/06 Q1015
  • 171250Z AUTO 21008KT 170V240 9999 OVC016/// 08/06 Q1015
  • 171220Z AUTO 21008KT 170V240 9999 OVC014/// 08/06 Q1015
  • 171150Z AUTO 22009KT 180V270 9999 OVC015/// 08/06 Q1014

Previsioni scadute.



MetMap, La meteo Aeronautica in un colpo d'occhio ! - Copyright ORBIFLY Dicembre 2007 - Disclaimer

ORBIFLY MET'MAP TEAM :

Programmazione e sviluppo : Alexandra Zaïnal
Concezione e sviluppo : Baudouin d'Aumeries
Co-Programmazione e sviluppo : Marc-Olivier Méhu
Supporto tecnico e logistico : Manuel Goepfert
Aiuto per la traduzione : Arnaldo La Scala

Contatto : metmap@orbifly.com




FONTI E CREDITI :

   NOAA